Time;durP1;ratioP1;P1;durP2;ratioP2;P2;SDS_P1;SDS_P2;PMS_P1;PMS_P2;Temp;Humidity;BMP_temperature;BMP_pressure;BME280_temperature;BME280_humidity;BME280_pressure;Samples;Min_cycle;Max_cycle;Signal;HPM_P1;HPM_P2
2023/03/06 00:00:51;;;;;;;24.42;13.93;;;;;;;;;;6088434;23;20022;-78
2023/03/06 00:03:19;;;;;;;24.70;14.73;;;;;;;;;;6115608;23;20078;-78
2023/03/06 00:05:46;;;;;;;28.02;15.00;;;;;;;;;;6117171;23;20029;-77
2023/03/06 00:08:12;;;;;;;27.73;14.82;;;;;;;;;;6111748;23;20026;-78
2023/03/06 00:10:39;;;;;;;26.27;13.45;;;;;;;;;;6085523;23;20464;-78
2023/03/06 00:13:10;;;;;;;26.15;14.45;;;;;;;;;;6085727;23;20030;-78
2023/03/06 00:15:37;;;;;;;26.42;13.27;;;;;;;;;;6112206;23;20061;-78
2023/03/06 00:18:04;;;;;;;26.08;14.13;;;;;;;;;;6135016;23;20033;-78
2023/03/06 00:20:32;;;;;;;25.60;14.10;;;;;;;;;;6111261;23;20024;-78
2023/03/06 00:22:58;;;;;;;27.42;14.90;;;;;;;;;;6088258;23;20056;-78
2023/03/06 00:25:25;;;;;;;25.92;13.98;;;;;;;;;;6111520;23;20030;-78
2023/03/06 00:27:52;;;;;;;29.05;16.23;;;;;;;;;;6113441;23;20081;-78
2023/03/06 00:30:21;;;;;;;28.48;14.23;;;;;;;;;;6089637;23;20026;-78
2023/03/06 00:32:48;;;;;;;27.75;15.80;;;;;;;;;;6112940;23;20032;-77
2023/03/06 00:35:15;;;;;;;23.67;14.52;;;;;;;;;;6087494;23;20049;-77
2023/03/06 00:37:41;;;;;;;24.17;13.82;;;;;;;;;;6110905;23;20078;-77
2023/03/06 00:40:11;;;;;;;26.25;14.45;;;;;;;;;;6086745;23;20037;-78
2023/03/06 00:42:38;;;;;;;24.10;14.07;;;;;;;;;;6110634;23;20049;-77
2023/03/06 00:45:05;;;;;;;26.05;15.38;;;;;;;;;;6086470;23;20108;-77
2023/03/06 00:47:32;;;;;;;22.92;12.98;;;;;;;;;;6112472;23;20109;-77
2023/03/06 00:49:59;;;;;;;22.45;13.93;;;;;;;;;;6091325;23;20026;-78
2023/03/06 00:52:26;;;;;;;25.63;13.43;;;;;;;;;;6115361;23;20097;-77
2023/03/06 00:54:52;;;;;;;23.27;13.30;;;;;;;;;;6116120;23;20026;-78
2023/03/06 00:57:19;;;;;;;25.90;13.85;;;;;;;;;;6092068;23;20069;-78
2023/03/06 00:59:46;;;;;;;26.23;13.77;;;;;;;;;;6092263;23;20053;-76
2023/03/06 01:02:13;;;;;;;26.83;14.13;;;;;;;;;;6116482;23;20022;-78
2023/03/06 01:04:40;;;;;;;24.52;14.05;;;;;;;;;;6093764;23;20029;-78
2023/03/06 01:07:06;;;;;;;23.38;13.10;;;;;;;;;;6095106;23;20061;-78
2023/03/06 01:09:33;;;;;;;25.10;13.23;;;;;;;;;;6094443;23;20397;-78
2023/03/06 01:12:00;;;;;;;28.75;13.40;;;;;;;;;;6142579;23;20025;-78
2023/03/06 01:14:27;;;;;;;26.63;13.95;;;;;;;;;;6118673;23;20060;-78
2023/03/06 01:16:54;;;;;;;22.42;13.40;;;;;;;;;;6092640;23;20018;-78
2023/03/06 01:19:20;;;;;;;25.40;13.20;;;;;;;;;;6090388;23;20053;-78
2023/03/06 01:21:47;;;;;;;25.42;13.13;;;;;;;;;;6090792;23;20113;-78
2023/03/06 01:24:14;;;;;;;21.40;12.80;;;;;;;;;;6090211;23;20081;-78
2023/03/06 01:26:41;;;;;;;26.17;12.82;;;;;;;;;;6090748;23;20022;-78
2023/03/06 01:29:07;;;;;;;26.25;13.68;;;;;;;;;;6116071;23;20030;-78
2023/03/06 01:31:34;;;;;;;20.98;13.43;;;;;;;;;;6117117;23;20052;-78
2023/03/06 01:34:01;;;;;;;23.98;12.98;;;;;;;;;;6117897;23;20025;-78
2023/03/06 01:36:28;;;;;;;22.92;13.50;;;;;;;;;;6139780;23;20069;-79
2023/03/06 01:38:54;;;;;;;21.83;12.70;;;;;;;;;;6115124;23;20581;-79
2023/03/06 01:41:21;;;;;;;22.67;13.00;;;;;;;;;;6114923;23;20056;-79
2023/03/06 01:43:48;;;;;;;22.85;13.15;;;;;;;;;;6090198;23;20097;-79
2023/03/06 01:46:17;;;;;;;27.08;14.27;;;;;;;;;;6091529;23;20065;-78
2023/03/06 01:48:44;;;;;;;23.10;13.07;;;;;;;;;;6114740;23;20025;-79
2023/03/06 01:51:11;;;;;;;24.35;13.70;;;;;;;;;;6089409;23;20523;-78
2023/03/06 01:53:39;;;;;;;27.30;14.20;;;;;;;;;;6088399;23;20030;-79
2023/03/06 01:56:06;;;;;;;25.27;14.23;;;;;;;;;;6114828;23;20026;-79
2023/03/06 01:58:32;;;;;;;21.35;12.55;;;;;;;;;;6136059;23;20033;-79
2023/03/06 02:00:59;;;;;;;25.67;13.75;;;;;;;;;;6086658;23;20028;-80
2023/03/06 02:03:26;;;;;;;23.13;13.70;;;;;;;;;;6111212;23;20030;-80
2023/03/06 02:05:53;;;;;;;22.27;12.52;;;;;;;;;;6086815;23;20097;-80
2023/03/06 02:08:20;;;;;;;27.15;14.43;;;;;;;;;;6085321;23;20054;-79
2023/03/06 02:11:09;;;;;;;22.60;12.77;;;;;;;;;;6107527;23;20026;-78
2023/03/06 02:13:36;;;;;;;23.35;12.90;;;;;;;;;;6114166;23;20025;-77
2023/03/06 02:16:08;;;;;;;23.48;12.23;;;;;;;;;;6138113;23;20026;-78
2023/03/06 02:18:35;;;;;;;22.80;12.27;;;;;;;;;;6113325;23;20085;-78
2023/03/06 02:21:05;;;;;;;21.42;13.23;;;;;;;;;;6112107;23;20555;-78
2023/03/06 02:24:10;;;;;;;22.52;12.68;;;;;;;;;;6113255;23;20036;-78
2023/03/06 02:26:37;;;;;;;19.88;12.40;;;;;;;;;;6138272;23;20025;-78
2023/03/06 02:29:04;;;;;;;20.83;11.88;;;;;;;;;;6113782;23;20082;-78
2023/03/06 02:31:32;;;;;;;17.80;11.05;;;;;;;;;;6089413;23;20070;-78
2023/03/06 02:34:13;;;;;;;20.63;11.80;;;;;;;;;;6088054;23;20026;-78
2023/03/06 02:36:42;;;;;;;20.35;11.57;;;;;;;;;;6112442;23;20030;-77
2023/03/06 02:39:09;;;;;;;19.25;10.77;;;;;;;;;;6110722;23;20037;-78
2023/03/06 02:41:36;;;;;;;21.25;11.55;;;;;;;;;;6087494;23;20456;-78
2023/03/06 02:44:02;;;;;;;19.13;10.35;;;;;;;;;;6089376;23;20046;-78
2023/03/06 02:46:29;;;;;;;19.48;10.43;;;;;;;;;;6112775;23;20026;-77
2023/03/06 02:48:56;;;;;;;21.00;11.27;;;;;;;;;;6089532;23;20034;-78
2023/03/06 02:51:23;;;;;;;20.77;10.70;;;;;;;;;;6112863;23;20472;-78
2023/03/06 02:53:49;;;;;;;18.10;10.65;;;;;;;;;;6105923;23;20034;-78
2023/03/06 02:56:18;;;;;;;21.30;11.60;;;;;;;;;;6107275;23;20029;-79
2023/03/06 02:58:45;;;;;;;18.52;10.93;;;;;;;;;;6081031;23;20040;-78
2023/03/06 03:01:11;;;;;;;19.58;11.13;;;;;;;;;;6104119;23;20472;-78
2023/03/06 03:03:38;;;;;;;21.23;10.38;;;;;;;;;;6103664;23;20060;-78
2023/03/06 03:06:06;;;;;;;15.35;9.60;;;;;;;;;;6104102;23;20476;-77
2023/03/06 03:08:33;;;;;;;17.85;10.55;;;;;;;;;;6079295;23;20018;-78
2023/03/06 03:11:00;;;;;;;20.13;11.15;;;;;;;;;;6103752;23;20030;-78
2023/03/06 03:13:27;;;;;;;19.80;10.60;;;;;;;;;;6108166;23;20040;-78
2023/03/06 03:16:04;;;;;;;18.73;10.60;;;;;;;;;;6108187;23;20069;-78
2023/03/06 03:18:31;;;;;;;16.65;10.52;;;;;;;;;;6106873;23;20037;-78
2023/03/06 03:20:58;;;;;;;17.10;10.55;;;;;;;;;;6084217;23;20030;-78
2023/03/06 03:23:25;;;;;;;18.42;9.70;;;;;;;;;;6083343;23;20268;-78
2023/03/06 03:25:52;;;;;;;21.52;11.05;;;;;;;;;;6079523;23;20333;-79
2023/03/06 03:28:19;;;;;;;17.83;11.20;;;;;;;;;;6107451;23;20032;-79
2023/03/06 03:30:46;;;;;;;19.88;11.13;;;;;;;;;;6085173;23;20025;-78
2023/03/06 03:33:12;;;;;;;19.30;10.55;;;;;;;;;;6085073;23;20054;-79
2023/03/06 03:35:58;;;;;;;17.20;10.45;;;;;;;;;;6114272;23;20169;-79
2023/03/06 03:38:25;;;;;;;18.15;10.35;;;;;;;;;;6118643;23;20029;-78
2023/03/06 03:40:52;;;;;;;19.08;11.18;;;;;;;;;;6120348;23;20025;-77
2023/03/06 03:43:18;;;;;;;20.58;10.55;;;;;;;;;;6093404;23;20030;-78
2023/03/06 03:45:45;;;;;;;14.88;9.77;;;;;;;;;;6091783;23;20029;-77
2023/03/06 03:48:12;;;;;;;18.88;10.90;;;;;;;;;;6120828;23;20092;-77
2023/03/06 03:50:39;;;;;;;18.60;10.15;;;;;;;;;;6090647;23;20049;-76
2023/03/06 03:53:05;;;;;;;19.13;11.07;;;;;;;;;;6121168;23;20081;-76
2023/03/06 03:55:32;;;;;;;22.85;11.27;;;;;;;;;;6096200;23;20026;-76
2023/03/06 03:57:59;;;;;;;16.60;10.10;;;;;;;;;;6087783;23;20057;-77
2023/03/06 04:00:26;;;;;;;15.32;10.32;;;;;;;;;;6075886;23;20400;-77
2023/03/06 04:02:52;;;;;;;15.95;10.05;;;;;;;;;;6098502;23;20021;-77
2023/03/06 04:05:19;;;;;;;17.85;10.60;;;;;;;;;;6098067;23;20149;-76
2023/03/06 04:07:46;;;;;;;15.38;10.07;;;;;;;;;;6097861;23;20072;-77
2023/03/06 04:10:13;;;;;;;20.80;10.95;;;;;;;;;;6097695;23;20068;-77
2023/03/06 04:12:39;;;;;;;16.98;10.65;;;;;;;;;;6097743;23;20072;-76
2023/03/06 04:15:07;;;;;;;15.77;9.63;;;;;;;;;;6073993;23;20030;-76
2023/03/06 04:17:33;;;;;;;16.27;10.85;;;;;;;;;;6097926;23;20021;-76
2023/03/06 04:20:01;;;;;;;15.50;9.75;;;;;;;;;;6098295;23;20077;-76
2023/03/06 04:22:28;;;;;;;16.13;9.82;;;;;;;;;;6098564;23;20026;-76
2023/03/06 04:24:54;;;;;;;17.27;11.25;;;;;;;;;;6097892;23;20442;-76
2023/03/06 04:27:21;;;;;;;17.67;10.57;;;;;;;;;;6097770;23;20100;-76
2023/03/06 04:29:48;;;;;;;18.30;10.18;;;;;;;;;;6074288;23;20071;-76
2023/03/06 04:32:15;;;;;;;16.48;10.48;;;;;;;;;;6074030;23;20109;-76
2023/03/06 04:34:41;;;;;;;14.23;8.88;;;;;;;;;;6100549;23;20026;-78
2023/03/06 04:37:21;;;;;;;14.63;10.27;;;;;;;;;;6081254;23;20065;-78
2023/03/06 04:39:48;;;;;;;18.40;10.20;;;;;;;;;;6106469;23;20029;-80
2023/03/06 04:42:15;;;;;;;15.65;10.35;;;;;;;;;;6106223;23;20026;-79
2023/03/06 04:44:42;;;;;;;15.85;9.43;;;;;;;;;;6082460;23;20467;-79
2023/03/06 04:47:09;;;;;;;14.98;9.50;;;;;;;;;;6082254;23;20025;-78
2023/03/06 04:49:36;;;;;;;14.73;9.85;;;;;;;;;;6078281;23;20077;-79
2023/03/06 04:52:05;;;;;;;17.58;9.55;;;;;;;;;;6077021;23;20022;-80
2023/03/06 04:54:32;;;;;;;13.23;8.70;;;;;;;;;;6103235;23;20105;-79
2023/03/06 04:56:59;;;;;;;17.77;9.30;;;;;;;;;;6078964;23;20030;-79
2023/03/06 04:59:26;;;;;;;15.55;9.02;;;;;;;;;;6102313;23;20033;-80
2023/03/06 05:01:54;;;;;;;15.23;9.35;;;;;;;;;;6078861;23;20101;-79
2023/03/06 05:04:20;;;;;;;14.10;9.48;;;;;;;;;;6077666;23;20397;-80
2023/03/06 05:06:47;;;;;;;14.10;8.88;;;;;;;;;;6077163;23;20032;-79
2023/03/06 05:09:14;;;;;;;16.67;9.02;;;;;;;;;;6101778;23;20057;-79
2023/03/06 05:11:41;;;;;;;14.00;8.90;;;;;;;;;;6101000;23;20018;-79
2023/03/06 05:14:07;;;;;;;15.88;9.25;;;;;;;;;;6126201;23;20026;-80
2023/03/06 05:16:34;;;;;;;16.52;10.32;;;;;;;;;;6077851;23;20036;-80
2023/03/06 05:19:01;;;;;;;14.68;9.57;;;;;;;;;;6126990;23;20030;-80
2023/03/06 05:21:27;;;;;;;16.20;9.13;;;;;;;;;;6100916;23;20238;-79
2023/03/06 05:23:54;;;;;;;15.55;9.60;;;;;;;;;;6125217;23;20065;-80
2023/03/06 05:26:21;;;;;;;18.55;10.82;;;;;;;;;;6100419;23;20030;-84
2023/03/06 05:28:48;;;;;;;15.95;10.27;;;;;;;;;;6075594;23;20045;-83
2023/03/06 05:31:15;;;;;;;18.08;10.35;;;;;;;;;;6099151;23;20053;-86
2023/03/06 05:33:42;;;;;;;13.23;9.00;;;;;;;;;;6122879;23;20036;-87
2023/03/06 05:36:15;;;;;;;18.02;9.98;;;;;;;;;;6078521;23;20050;-78
2023/03/06 05:38:42;;;;;;;19.73;10.80;;;;;;;;;;6107609;23;20090;-78
2023/03/06 05:41:13;;;;;;;15.55;10.20;;;;;;;;;;6106531;23;20100;-79
2023/03/06 05:43:53;;;;;;;19.80;10.85;;;;;;;;;;6081256;23;20130;-79
2023/03/06 05:46:19;;;;;;;12.98;9.32;;;;;;;;;;6082844;23;20061;-79
2023/03/06 05:48:47;;;;;;;16.88;10.48;;;;;;;;;;6085900;23;20026;-79
2023/03/06 05:54:38;;;;;;;15.10;9.18;;;;;;;;;;6141698;23;20549;-79
2023/03/06 05:57:05;;;;;;;14.23;9.63;;;;;;;;;;6114348;23;20093;-79
2023/03/06 05:59:31;;;;;;;17.85;11.13;;;;;;;;;;6115564;23;20100;-79
2023/03/06 06:01:59;;;;;;;17.73;10.38;;;;;;;;;;6110446;23;20029;-80
2023/03/06 06:04:26;;;;;;;16.00;10.02;;;;;;;;;;6113877;23;20053;-80
2023/03/06 06:06:54;;;;;;;14.80;9.50;;;;;;;;;;6088170;23;20033;-86
2023/03/06 06:09:21;;;;;;;15.10;10.13;;;;;;;;;;6127864;23;20022;-85
2023/03/06 06:11:53;;;;;;;14.45;9.38;;;;;;;;;;6102736;23;20061;-81
2023/03/06 06:14:20;;;;;;;12.93;8.80;;;;;;;;;;6127431;23;20053;-79
2023/03/06 06:16:47;;;;;;;14.98;9.25;;;;;;;;;;6078535;23;20105;-82
2023/03/06 06:19:17;;;;;;;15.93;9.30;;;;;;;;;;6100611;23;20101;-79
2023/03/06 06:21:49;;;;;;;13.43;8.50;;;;;;;;;;6076327;23;20030;-78
2023/03/06 06:24:17;;;;;;;15.48;7.85;;;;;;;;;;6075697;23;20046;-78
2023/03/06 06:26:44;;;;;;;15.15;8.90;;;;;;;;;;6098190;23;20364;-78
2023/03/06 06:29:12;;;;;;;14.70;9.00;;;;;;;;;;6098248;23;20101;-78
2023/03/06 06:31:39;;;;;;;12.85;8.90;;;;;;;;;;6099523;23;20073;-78
2023/03/06 06:34:06;;;;;;;17.88;9.82;;;;;;;;;;6077068;23;20348;-78
2023/03/06 06:36:33;;;;;;;18.10;10.13;;;;;;;;;;6075969;23;20457;-79
2023/03/06 06:39:00;;;;;;;24.23;12.00;;;;;;;;;;6100270;23;20034;-79
2023/03/06 06:41:27;;;;;;;21.60;11.00;;;;;;;;;;6099475;23;20032;-79
2023/03/06 06:44:15;;;;;;;22.40;12.13;;;;;;;;;;6104192;23;20030;-79
2023/03/06 06:46:44;;;;;;;22.80;13.20;;;;;;;;;;6100687;23;20022;-79
2023/03/06 06:49:31;;;;;;;23.02;12.73;;;;;;;;;;6104161;23;20032;-79
2023/03/06 06:51:58;;;;;;;22.92;13.23;;;;;;;;;;6077503;23;20024;-79
2023/03/06 06:54:25;;;;;;;24.33;13.15;;;;;;;;;;6100948;23;20034;-79
2023/03/06 06:56:52;;;;;;;20.77;12.93;;;;;;;;;;6077422;23;20114;-79
2023/03/06 06:59:19;;;;;;;22.80;13.75;;;;;;;;;;6099934;23;20444;-79
2023/03/06 07:01:46;;;;;;;20.27;11.60;;;;;;;;;;6098574;23;20420;-82
2023/03/06 07:04:14;;;;;;;16.05;9.25;;;;;;;;;;6123396;23;20026;-80
2023/03/06 07:06:57;;;;;;;15.82;9.50;;;;;;;;;;6099997;23;20032;-79
2023/03/06 07:09:24;;;;;;;13.98;8.88;;;;;;;;;;6100713;23;20062;-80
2023/03/06 07:11:57;;;;;;;12.48;8.73;;;;;;;;;;6099331;23;20081;-79
2023/03/06 07:14:23;;;;;;;;;;;;;;;;;;6100765;23;20026;-82
2023/03/06 07:16:50;;;;;;;16.52;9.43;;;;;;;;;;6078556;23;20424;-82
2023/03/06 07:19:17;;;;;;;15.43;10.27;;;;;;;;;;6078915;23;20086;-82
2023/03/06 07:21:50;;;;;;;15.57;8.98;;;;;;;;;;6100599;23;20036;-83
2023/03/06 07:24:17;;;;;;;;;;;;;;;;;;6077163;23;20025;-79
2023/03/06 07:26:47;;;;;;;13.05;8.10;;;;;;;;;;6073241;23;19921;-82
2023/03/06 07:29:14;;;;;;;17.42;9.45;;;;;;;;;;6075281;23;20421;-80
2023/03/06 07:31:41;;;;;;;14.48;9.10;;;;;;;;;;6092213;23;20021;-82
2023/03/06 07:34:09;;;;;;;15.68;9.63;;;;;;;;;;6100898;23;20049;-82
2023/03/06 07:36:39;;;;;;;14.85;9.20;;;;;;;;;;6099816;23;20030;-82
2023/03/06 07:39:06;;;;;;;11.70;8.35;;;;;;;;;;6077869;23;20364;-81
2023/03/06 07:41:34;;;;;;;16.60;9.88;;;;;;;;;;6099343;23;20444;-82
2023/03/06 07:44:00;;;;;;;16.15;9.48;;;;;;;;;;6122728;23;20028;-82
2023/03/06 07:46:27;;;;;;;13.73;7.82;;;;;;;;;;6074563;23;20228;-81
2023/03/06 07:48:54;;;;;;;14.40;8.55;;;;;;;;;;6076324;23;20100;-84
2023/03/06 07:51:21;;;;;;;13.80;9.55;;;;;;;;;;6077594;23;20038;-82
2023/03/06 07:53:48;;;;;;;15.52;8.10;;;;;;;;;;6075927;23;20355;-81
2023/03/06 07:56:15;;;;;;;13.13;8.20;;;;;;;;;;6074578;23;20082;-82
2023/03/06 07:58:46;;;;;;;12.40;8.25;;;;;;;;;;6077010;23;20105;-81
2023/03/06 08:01:15;;;;;;;10.98;7.97;;;;;;;;;;6101345;23;20109;-82
2023/03/06 08:03:46;;;;;;;18.40;9.02;;;;;;;;;;6101539;23;20074;-82
2023/03/06 08:06:15;;;;;;;15.38;8.15;;;;;;;;;;6100383;23;20030;-81
2023/03/06 08:08:43;;;;;;;15.85;7.50;;;;;;;;;;6122725;23;20085;-82
2023/03/06 08:11:11;;;;;;;16.50;8.77;;;;;;;;;;6098772;23;20029;-81
2023/03/06 08:13:39;;;;;;;11.48;7.22;;;;;;;;;;6123856;23;20018;-83
2023/03/06 08:16:06;;;;;;;13.23;7.22;;;;;;;;;;6075748;23;20029;-84
2023/03/06 08:18:33;;;;;;;13.80;7.07;;;;;;;;;;6098455;23;20341;-83
2023/03/06 08:21:05;;;;;;;11.60;6.93;;;;;;;;;;6098293;23;20026;-83
2023/03/06 08:23:33;;;;;;;12.50;7.63;;;;;;;;;;6097476;23;20022;-83
2023/03/06 08:26:02;;;;;;;11.13;7.53;;;;;;;;;;6074147;23;20432;-84
2023/03/06 08:28:28;;;;;;;11.85;7.10;;;;;;;;;;6097457;23;20192;-83
2023/03/06 08:30:57;;;;;;;11.50;6.13;;;;;;;;;;6098280;23;20026;-85
2023/03/06 08:33:23;;;;;;;12.43;7.78;;;;;;;;;;6098165;23;20348;-84
2023/03/06 08:35:51;;;;;;;13.30;7.57;;;;;;;;;;6074363;23;20238;-84
2023/03/06 08:38:18;;;;;;;13.52;8.13;;;;;;;;;;6121792;23;20349;-85
2023/03/06 08:40:45;;;;;;;13.05;7.88;;;;;;;;;;6096085;23;20025;-82
2023/03/06 08:43:17;;;;;;;11.10;6.03;;;;;;;;;;6072348;23;20021;-85
2023/03/06 08:45:53;;;;;;;11.18;7.13;;;;;;;;;;6096895;23;20422;-84
2023/03/06 08:48:20;;;;;;;10.60;6.43;;;;;;;;;;6096818;23;20081;-85
2023/03/06 08:50:47;;;;;;;11.45;7.03;;;;;;;;;;6073546;23;20026;-84
2023/03/06 08:53:14;;;;;;;11.10;7.28;;;;;;;;;;6075488;23;20413;-84
2023/03/06 08:55:41;;;;;;;12.40;7.05;;;;;;;;;;6099161;23;20037;-83
2023/03/06 08:58:08;;;;;;;14.32;8.27;;;;;;;;;;6099207;23;20575;-80
2023/03/06 09:00:35;;;;;;;10.50;6.40;;;;;;;;;;6076762;23;20129;-81
2023/03/06 09:03:03;;;;;;;10.30;6.22;;;;;;;;;;6099331;23;20029;-81
2023/03/06 09:05:30;;;;;;;12.32;7.53;;;;;;;;;;6100105;23;20034;-82
2023/03/06 09:07:57;;;;;;;9.57;7.13;;;;;;;;;;6100486;23;20026;-83
2023/03/06 09:10:25;;;;;;;11.18;7.60;;;;;;;;;;6097272;23;20113;-82
2023/03/06 09:12:51;;;;;;;11.43;6.93;;;;;;;;;;6098728;23;20022;-80
2023/03/06 09:15:21;;;;;;;13.95;7.78;;;;;;;;;;6076965;23;20117;-80
2023/03/06 09:17:49;;;;;;;10.48;6.82;;;;;;;;;;6123861;23;20030;-79
2023/03/06 09:20:17;;;;;;;11.60;7.30;;;;;;;;;;6123168;23;20041;-80
2023/03/06 09:22:44;;;;;;;13.40;6.78;;;;;;;;;;6099770;23;20070;-80
2023/03/06 09:25:19;;;;;;;12.75;7.05;;;;;;;;;;6076079;23;20101;-80
2023/03/06 09:27:46;;;;;;;11.38;7.07;;;;;;;;;;6076910;23;20109;-78
2023/03/06 09:30:27;;;;;;;10.55;6.70;;;;;;;;;;6101751;23;20030;-79
2023/03/06 09:32:54;;;;;;;10.40;6.78;;;;;;;;;;6077570;23;20026;-81
2023/03/06 09:35:20;;;;;;;9.40;6.60;;;;;;;;;;6078244;23;20100;-80
2023/03/06 09:37:47;;;;;;;11.15;7.75;;;;;;;;;;6077522;23;20048;-81
2023/03/06 09:40:21;;;;;;;9.85;6.60;;;;;;;;;;6077394;23;20030;-81
2023/03/06 09:42:48;;;;;;;11.63;6.70;;;;;;;;;;6099774;23;20076;-81
2023/03/06 09:45:15;;;;;;;10.05;6.90;;;;;;;;;;6077437;23;20065;-81
2023/03/06 09:47:55;;;;;;;10.75;6.90;;;;;;;;;;6079333;23;20033;-84
2023/03/06 09:50:34;;;;;;;10.40;6.82;;;;;;;;;;6100269;23;20076;-82
2023/03/06 09:53:14;;;;;;;10.63;7.20;;;;;;;;;;6100201;23;20105;-81
2023/03/06 09:55:45;;;;;;;9.38;6.10;;;;;;;;;;6101599;23;20396;-82
2023/03/06 09:58:20;;;;;;;9.75;6.50;;;;;;;;;;6101006;23;20136;-81
2023/03/06 10:01:18;;;;;;;12.48;7.22;;;;;;;;;;6100633;23;20219;-81
2023/03/06 10:03:47;;;;;;;11.75;7.68;;;;;;;;;;6076683;23;20025;-80
2023/03/06 10:06:25;;;;;;;10.02;7.07;;;;;;;;;;6101971;23;20030;-81
2023/03/06 10:09:13;;;;;;;11.20;7.43;;;;;;;;;;6123440;23;20057;-82
2023/03/06 10:12:00;;;;;;;12.10;8.63;;;;;;;;;;6077118;23;20052;-81
2023/03/06 10:14:37;;;;;;;12.20;7.28;;;;;;;;;;6103577;23;20457;-82
2023/03/06 10:17:15;;;;;;;13.23;7.88;;;;;;;;;;6126701;23;20041;-80
2023/03/06 10:19:42;;;;;;;11.15;7.93;;;;;;;;;;6076279;23;20025;-80
2023/03/06 10:22:35;;;;;;;11.30;6.93;;;;;;;;;;6099363;23;20456;-82
2023/03/06 10:25:26;;;;;;;12.10;7.50;;;;;;;;;;6097789;23;20360;-81
2023/03/06 10:28:09;;;;;;;10.63;7.30;;;;;;;;;;6125139;23;20048;-82
2023/03/06 10:30:48;;;;;;;13.35;7.68;;;;;;;;;;6099904;23;20029;-83
2023/03/06 10:33:48;;;;;;;13.88;7.90;;;;;;;;;;6099410;23;20030;-81
2023/03/06 10:36:16;;;;;;;12.63;6.40;;;;;;;;;;6097309;23;20029;-84
2023/03/06 10:38:44;;;;;;;11.23;7.20;;;;;;;;;;6100924;23;20460;-82
2023/03/06 10:41:11;;;;;;;12.70;7.30;;;;;;;;;;6100388;23;20068;-82
2023/03/06 10:43:38;;;;;;;11.98;7.43;;;;;;;;;;6100880;23;20077;-82
2023/03/06 10:46:06;;;;;;;11.40;6.82;;;;;;;;;;6100709;23;20072;-83
2023/03/06 10:48:37;;;;;;;11.52;7.05;;;;;;;;;;6099591;23;20033;-81
2023/03/06 10:51:19;;;;;;;10.25;7.25;;;;;;;;;;6100147;23;20476;-80
2023/03/06 10:53:52;;;;;;;9.68;6.22;;;;;;;;;;6099787;23;20022;-81
2023/03/06 10:56:34;;;;;;;;;;;;;;;;;;6103494;23;20125;-81
2023/03/06 10:59:24;;;;;;;10.55;6.95;;;;;;;;;;6099590;23;19917;-82
2023/03/06 11:01:52;;;;;;;18.40;9.35;;;;;;;;;;6095157;23;20041;-80
2023/03/06 11:04:19;;;;;;;14.93;8.10;;;;;;;;;;6122559;23;20105;-80
2023/03/06 11:06:46;;;;;;;13.15;6.93;;;;;;;;;;6098792;23;20022;-80
2023/03/06 11:09:18;;;;;;;14.75;7.53;;;;;;;;;;6074795;23;20029;-81
2023/03/06 11:11:45;;;;;;;11.65;7.00;;;;;;;;;;6097256;23;20125;-78
2023/03/06 11:14:17;;;;;;;10.35;6.43;;;;;;;;;;6074522;23;20027;-80
2023/03/06 11:16:57;;;;;;;10.13;6.43;;;;;;;;;;6098690;23;20142;-80
2023/03/06 11:19:26;;;;;;;9.15;5.80;;;;;;;;;;6123643;23;20105;-80
2023/03/06 11:22:15;;;;;;;8.60;5.85;;;;;;;;;;6098097;23;20105;-83
2023/03/06 11:24:45;;;;;;;9.60;6.50;;;;;;;;;;6123138;23;20029;-82
2023/03/06 11:27:23;;;;;;;9.55;6.30;;;;;;;;;;6121742;23;20044;-82
2023/03/06 11:29:52;;;;;;;9.63;6.15;;;;;;;;;;6100624;23;20025;-81
2023/03/06 11:32:20;;;;;;;10.88;6.13;;;;;;;;;;6113730;23;20323;-82
2023/03/06 11:34:49;;;;;;;9.85;5.72;;;;;;;;;;6117481;23;20040;-81
2023/03/06 11:37:23;;;;;;;13.60;6.85;;;;;;;;;;6111379;23;20030;-81
2023/03/06 11:40:04;;;;;;;11.68;6.60;;;;;;;;;;6117299;23;20049;-81
2023/03/06 11:42:47;;;;;;;10.82;6.78;;;;;;;;;;6082877;23;20029;-84
2023/03/06 11:45:36;;;;;;;12.77;7.45;;;;;;;;;;6082642;23;20041;-85
2023/03/06 11:48:16;;;;;;;10.20;6.40;;;;;;;;;;6104212;23;20460;-79
2023/03/06 11:50:45;;;;;;;13.05;6.75;;;;;;;;;;6100292;23;20025;-81
2023/03/06 11:53:36;;;;;;;11.23;7.50;;;;;;;;;;6101235;23;20026;-78
2023/03/06 11:56:04;;;;;;;9.93;6.20;;;;;;;;;;6068712;23;20482;-78
2023/03/06 11:59:06;;;;;;;8.27;5.80;;;;;;;;;;6098485;23;20029;-77
2023/03/06 12:01:54;;;;;;;13.60;7.55;;;;;;;;;;6102472;23;20340;-82
2023/03/06 12:04:38;;;;;;;7.78;5.68;;;;;;;;;;6101750;23;20080;-80
2023/03/06 12:07:13;;;;;;;10.85;6.80;;;;;;;;;;6100275;23;20037;-79
2023/03/06 12:09:43;;;;;;;8.32;6.43;;;;;;;;;;6126686;23;20117;-79
2023/03/06 12:12:19;;;;;;;9.90;5.93;;;;;;;;;;6099415;23;20516;-78
2023/03/06 12:14:50;;;;;;;8.95;6.00;;;;;;;;;;6098249;23;20029;-80
2023/03/06 12:17:58;;;;;;;12.45;6.82;;;;;;;;;;6102321;23;20026;-80
2023/03/06 12:20:53;;;;;;;9.60;6.80;;;;;;;;;;6102136;23;20041;-80
2023/03/06 12:23:44;;;;;;;9.48;6.38;;;;;;;;;;6076147;23;20032;-82
2023/03/06 12:26:42;;;;;;;11.27;7.35;;;;;;;;;;6127345;23;20034;-82
2023/03/06 12:29:09;;;;;;;9.63;6.20;;;;;;;;;;6100788;23;20037;-81
2023/03/06 12:31:41;;;;;;;10.35;6.65;;;;;;;;;;6099499;23;20064;-81
2023/03/06 12:34:17;;;;;;;8.38;6.18;;;;;;;;;;6096531;23;20026;-81
2023/03/06 12:37:04;;;;;;;9.32;6.20;;;;;;;;;;6106246;23;20032;-81
2023/03/06 12:39:59;;;;;;;10.88;6.85;;;;;;;;;;6097648;23;20486;-80
2023/03/06 12:42:33;;;;;;;11.23;7.05;;;;;;;;;;6098432;23;20344;-81
2023/03/06 12:45:38;;;;;;;9.80;6.13;;;;;;;;;;6073839;23;20021;-80
2023/03/06 12:48:15;;;;;;;10.07;6.07;;;;;;;;;;6096335;23;20026;-81
2023/03/06 12:50:43;;;;;;;11.52;6.35;;;;;;;;;;6073943;23;20372;-84
2023/03/06 12:53:26;;;;;;;13.60;8.30;;;;;;;;;;6052225;23;20128;-81
2023/03/06 12:55:53;;;;;;;10.88;6.40;;;;;;;;;;6097813;23;20079;-82
2023/03/06 12:58:31;;;;;;;13.80;6.68;;;;;;;;;;6050274;23;20022;-80
2023/03/06 13:01:22;;;;;;;11.57;7.68;;;;;;;;;;6096664;23;20069;-81
2023/03/06 13:04:17;;;;;;;12.48;8.65;;;;;;;;;;6097678;23;20097;-81
2023/03/06 13:06:53;;;;;;;11.40;7.75;;;;;;;;;;6080453;23;20077;-82
2023/03/06 13:09:43;;;;;;;13.02;7.75;;;;;;;;;;6102103;23;20333;-83
2023/03/06 13:12:14;;;;;;;11.18;8.00;;;;;;;;;;6100607;23;20030;-81
2023/03/06 13:14:40;;;;;;;10.68;7.03;;;;;;;;;;6078364;23;20052;-82
2023/03/06 13:17:32;;;;;;;10.52;7.13;;;;;;;;;;6124861;23;20494;-80
2023/03/06 13:20:14;;;;;;;10.13;6.10;;;;;;;;;;6052603;23;20029;-81
2023/03/06 13:22:44;;;;;;;9.02;6.18;;;;;;;;;;6102456;23;20034;-82
2023/03/06 13:25:17;;;;;;;8.38;5.40;;;;;;;;;;6075198;23;20033;-81
2023/03/06 13:27:46;;;;;;;;;;;;;;;;;;6100608;23;20021;-81
2023/03/06 13:30:37;;;;;;;8.55;5.78;;;;;;;;;;6077047;23;20340;-82
2023/03/06 13:33:24;;;;;;;8.38;5.22;;;;;;;;;;6104225;23;20029;-80
2023/03/06 13:35:54;;;;;;;9.32;6.05;;;;;;;;;;6103523;23;20049;-82
2023/03/06 13:38:34;;;;;;;8.52;5.75;;;;;;;;;;6076902;23;20093;-82
2023/03/06 13:41:19;;;;;;;10.68;5.45;;;;;;;;;;6072829;23;20294;-82
2023/03/06 13:43:47;;;;;;;8.55;5.72;;;;;;;;;;6074317;23;20029;-81
2023/03/06 13:46:26;;;;;;;7.72;5.57;;;;;;;;;;6051427;23;20472;-83
2023/03/06 13:49:08;;;;;;;9.65;6.32;;;;;;;;;;6051963;23;20551;-82
2023/03/06 13:51:40;;;;;;;7.30;5.32;;;;;;;;;;6076870;23;20030;-83
2023/03/06 13:54:16;;;;;;;11.52;5.32;;;;;;;;;;6053493;23;20050;-82
2023/03/06 13:57:12;;;;;;;9.50;6.32;;;;;;;;;;6076869;23;20041;-81
2023/03/06 13:59:59;;;;;;;8.77;5.57;;;;;;;;;;6100922;23;20030;-81
2023/03/06 14:03:07;;;;;;;8.27;5.07;;;;;;;;;;6077776;23;20026;-82
2023/03/06 14:05:48;;;;;;;10.43;5.43;;;;;;;;;;6076549;23;20032;-81
2023/03/06 14:08:29;;;;;;;8.25;5.47;;;;;;;;;;6051023;23;20820;-82
2023/03/06 14:11:18;;;;;;;10.07;4.70;;;;;;;;;;6073821;23;20109;-85
2023/03/06 14:13:48;;;;;;;8.65;5.40;;;;;;;;;;6052986;23;20019;-84
2023/03/06 14:16:21;;;;;;;8.00;5.13;;;;;;;;;;6075631;23;20156;-82
2023/03/06 14:18:49;;;;;;;9.07;5.40;;;;;;;;;;6074592;23;20109;-82
2023/03/06 14:21:39;;;;;;;7.32;4.85;;;;;;;;;;6050214;23;20261;-82
2023/03/06 14:24:17;;;;;;;8.02;5.30;;;;;;;;;;6051764;23;20030;-82
2023/03/06 14:26:46;;;;;;;7.28;4.65;;;;;;;;;;6052150;23;20030;-82
2023/03/06 14:29:26;;;;;;;8.32;4.88;;;;;;;;;;6052966;23;20389;-82
2023/03/06 14:31:57;;;;;;;8.98;4.82;;;;;;;;;;6053047;23;20031;-82
2023/03/06 14:34:28;;;;;;;7.63;5.40;;;;;;;;;;6053366;23;20302;-82
2023/03/06 14:36:59;;;;;;;7.15;5.30;;;;;;;;;;6050035;23;20032;-82
2023/03/06 14:39:33;;;;;;;11.15;5.57;;;;;;;;;;6076144;23;20074;-83
2023/03/06 14:42:23;;;;;;;9.68;5.30;;;;;;;;;;6078359;23;20030;-83
2023/03/06 14:45:05;;;;;;;10.77;5.88;;;;;;;;;;6077457;23;20022;-81
2023/03/06 14:47:33;;;;;;;10.55;5.88;;;;;;;;;;6061843;23;20413;-84
2023/03/06 14:50:29;;;;;;;9.82;6.55;;;;;;;;;;6079493;23;20056;-81
2023/03/06 14:53:05;;;;;;;10.20;6.05;;;;;;;;;;6079862;23;20060;-80
2023/03/06 14:55:33;;;;;;;9.38;6.10;;;;;;;;;;6102439;23;20030;-82
2023/03/06 14:58:03;;;;;;;9.02;5.57;;;;;;;;;;6053590;23;20037;-81